Time;durP1;ratioP1;P1;durP2;ratioP2;P2;SDS_P1;SDS_P2;PMS_P1;PMS_P2;Temp;Humidity;BMP_temperature;BMP_pressure;BME280_temperature;BME280_humidity;BME280_pressure;Samples;Min_cycle;Max_cycle;Signal;HPM_P1;HPM_P2
2022/03/30 00:00:48;;;;;;;27.50;9.40;;;;;;;;;;7384224;19;20128;-77
2022/03/30 00:03:15;;;;;;;22.43;7.53;;;;;;;;;;7383155;19;20172;-77
2022/03/30 00:05:41;;;;;;;17.27;7.87;;;;;;;;;;7382897;19;20170;-77
2022/03/30 00:08:07;;;;;;;21.57;8.23;;;;;;;;;;7384860;19;20241;-77
2022/03/30 00:10:34;;;;;;;20.17;8.07;;;;;;;;;;7380432;19;20196;-77
2022/03/30 00:13:00;;;;;;;17.57;7.87;;;;;;;;;;7379570;19;20179;-77
2022/03/30 00:15:26;;;;;;;22.20;8.03;;;;;;;;;;7383641;19;20480;-77
2022/03/30 00:17:52;;;;;;;21.47;7.33;;;;;;;;;;7383119;19;20153;-77
2022/03/30 00:20:19;;;;;;;20.00;8.03;;;;;;;;;;7384584;19;20148;-77
2022/03/30 00:22:45;;;;;;;31.77;8.60;;;;;;;;;;7383986;19;20156;-77
2022/03/30 00:25:12;;;;;;;21.97;8.17;;;;;;;;;;7397996;19;20630;-77
2022/03/30 00:27:39;;;;;;;16.43;6.83;;;;;;;;;;7393019;19;20125;-77
2022/03/30 00:30:06;;;;;;;23.90;8.23;;;;;;;;;;7402502;19;20157;-77
2022/03/30 00:32:32;;;;;;;18.97;7.77;;;;;;;;;;7390488;19;20184;-77
2022/03/30 00:34:58;;;;;;;21.60;7.87;;;;;;;;;;7384462;19;20544;-77
2022/03/30 00:37:24;;;;;;;19.60;7.80;;;;;;;;;;7386365;19;20157;-77
2022/03/30 00:39:53;;;;;;;19.73;7.30;;;;;;;;;;7391169;19;20540;-77
2022/03/30 00:42:21;;;;;;;23.07;7.57;;;;;;;;;;7393730;19;20165;-77
2022/03/30 00:44:47;;;;;;;21.47;7.30;;;;;;;;;;7394387;19;20117;-77
2022/03/30 00:47:17;;;;;;;16.50;6.97;;;;;;;;;;7392554;19;20609;-77
2022/03/30 00:49:43;;;;;;;17.10;6.80;;;;;;;;;;7391650;19;20201;-77
2022/03/30 00:52:10;;;;;;;19.20;7.83;;;;;;;;;;7388843;19;20169;-77
2022/03/30 00:54:37;;;;;;;20.57;6.90;;;;;;;;;;7389062;19;20545;-77
2022/03/30 00:57:04;;;;;;;21.03;8.03;;;;;;;;;;7392406;19;20610;-78
2022/03/30 00:59:30;;;;;;;36.10;7.00;;;;;;;;;;7389734;19;20216;-77
2022/03/30 01:01:56;;;;;;;21.70;7.90;;;;;;;;;;7385682;19;20291;-77
2022/03/30 01:04:22;;;;;;;21.93;7.93;;;;;;;;;;7389475;19;20242;-77
2022/03/30 01:06:48;;;;;;;18.47;7.73;;;;;;;;;;7389611;19;20144;-77
2022/03/30 01:09:14;;;;;;;23.07;7.83;;;;;;;;;;7389367;19;20153;-77
2022/03/30 01:11:40;;;;;;;20.50;7.43;;;;;;;;;;7406573;19;20649;-77
2022/03/30 01:14:07;;;;;;;24.77;7.03;;;;;;;;;;7415916;19;20136;-77
2022/03/30 01:16:33;;;;;;;19.00;6.83;;;;;;;;;;7416291;19;20192;-77
2022/03/30 01:19:06;;;;;;;21.27;7.50;;;;;;;;;;7415295;19;20152;-77
2022/03/30 01:21:32;;;;;;;18.47;6.27;;;;;;;;;;7390886;19;20172;-77
2022/03/30 01:23:58;;;;;;;24.20;7.30;;;;;;;;;;7387388;19;20138;-77
2022/03/30 01:26:25;;;;;;;24.47;7.63;;;;;;;;;;7389565;19;20631;-77
2022/03/30 01:28:51;;;;;;;22.43;7.03;;;;;;;;;;7410282;19;20144;-77
2022/03/30 01:34:02;;;;;;;26.13;6.80;;;;;;;;;;7417286;19;20140;-78
2022/03/30 01:36:28;;;;;;;23.03;7.90;;;;;;;;;;7419041;19;20121;-78
2022/03/30 01:38:54;;;;;;;19.00;6.30;;;;;;;;;;7392236;19;20140;-77
2022/03/30 01:41:20;;;;;;;27.63;6.70;;;;;;;;;;7390443;19;20149;-77
2022/03/30 01:43:46;;;;;;;21.93;7.63;;;;;;;;;;7390319;19;20121;-77
2022/03/30 01:46:12;;;;;;;25.50;7.77;;;;;;;;;;7387792;19;20499;-77
2022/03/30 01:48:38;;;;;;;14.20;5.40;;;;;;;;;;7390931;19;20573;-77
2022/03/30 01:51:05;;;;;;;29.40;7.40;;;;;;;;;;7390580;19;20142;-77
2022/03/30 01:53:31;;;;;;;18.37;5.60;;;;;;;;;;7388779;19;20145;-77
2022/03/30 01:55:56;;;;;;;25.83;6.63;;;;;;;;;;7387913;19;20145;-77
2022/03/30 01:58:23;;;;;;;28.07;6.93;;;;;;;;;;7387589;19;20529;-77
2022/03/30 02:00:49;;;;;;;29.17;6.93;;;;;;;;;;7387743;19;20141;-77
2022/03/30 02:03:15;;;;;;;27.30;7.63;;;;;;;;;;7387462;19;20179;-77
2022/03/30 02:05:41;;;;;;;25.97;6.73;;;;;;;;;;7392203;19;20714;-78
2022/03/30 02:08:08;;;;;;;20.93;6.80;;;;;;;;;;7392606;19;20468;-77
2022/03/30 02:10:34;;;;;;;19.97;6.10;;;;;;;;;;7386557;19;20164;-77
2022/03/30 02:13:00;;;;;;;20.00;6.53;;;;;;;;;;7388788;19;20171;-77
2022/03/30 02:15:26;;;;;;;17.83;6.77;;;;;;;;;;7387932;19;20598;-77
2022/03/30 02:17:52;;;;;;;24.30;6.97;;;;;;;;;;7392034;19;20474;-77
2022/03/30 02:20:18;;;;;;;28.30;7.50;;;;;;;;;;7390521;19;20128;-78
2022/03/30 02:22:44;;;;;;;21.33;6.13;;;;;;;;;;7383495;19;20168;-77
2022/03/30 02:25:10;;;;;;;25.27;6.90;;;;;;;;;;7389562;19;20136;-77
2022/03/30 02:27:37;;;;;;;22.07;5.70;;;;;;;;;;7382925;19;20228;-77
2022/03/30 02:30:04;;;;;;;24.90;6.57;;;;;;;;;;7387635;19;20176;-77
2022/03/30 02:32:30;;;;;;;25.10;6.40;;;;;;;;;;7387279;19;20176;-77
2022/03/30 02:34:56;;;;;;;24.13;6.70;;;;;;;;;;7390568;19;20153;-77
2022/03/30 02:37:22;;;;;;;25.60;6.13;;;;;;;;;;7389218;19;20633;-77
2022/03/30 02:39:48;;;;;;;19.33;6.30;;;;;;;;;;7396309;19;20613;-78
2022/03/30 02:42:14;;;;;;;18.70;6.03;;;;;;;;;;7386704;19;20176;-78
2022/03/30 02:44:40;;;;;;;23.30;5.80;;;;;;;;;;7403802;19;20117;-78
2022/03/30 02:47:07;;;;;;;25.80;6.63;;;;;;;;;;7387431;19;20560;-78
2022/03/30 02:49:33;;;;;;;22.10;6.37;;;;;;;;;;7388320;19;21118;-77
2022/03/30 02:51:59;;;;;;;28.83;6.53;;;;;;;;;;7388217;19;20614;-76
2022/03/30 02:54:25;;;;;;;29.13;6.93;;;;;;;;;;7384308;19;20152;-77
2022/03/30 02:56:51;;;;;;;26.20;6.13;;;;;;;;;;7388648;19;20627;-77
2022/03/30 02:59:17;;;;;;;20.87;5.63;;;;;;;;;;7387186;19;20436;-77
2022/03/30 03:01:44;;;;;;;16.10;6.07;;;;;;;;;;7388292;19;20187;-77
2022/03/30 03:04:10;;;;;;;24.13;7.23;;;;;;;;;;7388736;19;20160;-77
2022/03/30 03:06:36;;;;;;;17.03;5.27;;;;;;;;;;7386731;19;20163;-77
2022/03/30 03:09:03;;;;;;;20.00;6.17;;;;;;;;;;7389206;19;20135;-76
2022/03/30 03:11:29;;;;;;;27.30;6.97;;;;;;;;;;7387971;19;20216;-77
2022/03/30 03:13:55;;;;;;;17.93;7.23;;;;;;;;;;7386144;19;20622;-77
2022/03/30 03:16:21;;;;;;;17.27;5.57;;;;;;;;;;7390664;19;20185;-77
2022/03/30 03:18:48;;;;;;;26.50;7.00;;;;;;;;;;7390053;19;20168;-77
2022/03/30 03:21:14;;;;;;;21.73;5.93;;;;;;;;;;7388272;19;20262;-77
2022/03/30 03:23:41;;;;;;;25.37;7.40;;;;;;;;;;7385818;19;20156;-77
2022/03/30 03:26:07;;;;;;;15.17;5.43;;;;;;;;;;7390393;19;20590;-77
2022/03/30 03:28:34;;;;;;;18.90;6.80;;;;;;;;;;7384340;19;20133;-77
2022/03/30 03:31:00;;;;;;;21.53;6.97;;;;;;;;;;7388463;19;20125;-77
2022/03/30 03:33:26;;;;;;;19.27;7.10;;;;;;;;;;7385906;19;20558;-77
2022/03/30 03:35:52;;;;;;;25.67;7.43;;;;;;;;;;7387309;19;20156;-77
2022/03/30 03:38:18;;;;;;;22.10;7.93;;;;;;;;;;7388301;19;20128;-77
2022/03/30 03:40:44;;;;;;;25.10;5.87;;;;;;;;;;7387241;19;20133;-77
2022/03/30 03:43:10;;;;;;;18.47;5.80;;;;;;;;;;7386969;19;20155;-77
2022/03/30 03:45:36;;;;;;;20.70;6.33;;;;;;;;;;7386994;19;20125;-77
2022/03/30 03:48:02;;;;;;;22.40;6.23;;;;;;;;;;7387913;19;20168;-77
2022/03/30 03:50:28;;;;;;;22.93;5.83;;;;;;;;;;7396962;19;20140;-78
2022/03/30 03:52:55;;;;;;;22.03;5.97;;;;;;;;;;7411940;19;20145;-77
2022/03/30 03:55:22;;;;;;;17.23;5.70;;;;;;;;;;7410934;19;20130;-77
2022/03/30 03:57:49;;;;;;;21.70;6.23;;;;;;;;;;7413321;19;20127;-77
2022/03/30 04:00:15;;;;;;;17.40;7.00;;;;;;;;;;7413716;19;20125;-78
2022/03/30 04:02:42;;;;;;;22.07;6.50;;;;;;;;;;7386220;19;20179;-78
2022/03/30 04:05:12;;;;;;;17.80;5.60;;;;;;;;;;7388706;19;20146;-77
2022/03/30 04:07:38;;;;;;;22.37;5.60;;;;;;;;;;7405645;19;20162;-77
2022/03/30 04:10:05;;;;;;;14.13;5.57;;;;;;;;;;7400919;19;20171;-77
2022/03/30 04:12:31;;;;;;;27.47;6.10;;;;;;;;;;7406645;19;20156;-77
2022/03/30 04:14:57;;;;;;;20.30;5.13;;;;;;;;;;7406611;19;20152;-77
2022/03/30 04:17:23;;;;;;;18.43;5.60;;;;;;;;;;7428407;19;20109;-77
2022/03/30 04:19:49;;;;;;;17.30;6.23;;;;;;;;;;7426856;19;20157;-77
2022/03/30 04:22:15;;;;;;;14.63;5.30;;;;;;;;;;7425665;19;20156;-77
2022/03/30 04:24:41;;;;;;;21.47;5.77;;;;;;;;;;7425371;19;20153;-77
2022/03/30 04:27:07;;;;;;;16.93;5.33;;;;;;;;;;7400705;19;20879;-77
2022/03/30 04:29:33;;;;;;;19.67;5.77;;;;;;;;;;7393181;19;20113;-76
2022/03/30 04:32:00;;;;;;;17.83;5.90;;;;;;;;;;7392754;19;20167;-77
2022/03/30 04:34:26;;;;;;;28.50;6.10;;;;;;;;;;7391759;19;20136;-77
2022/03/30 04:36:52;;;;;;;15.90;5.80;;;;;;;;;;7394733;19;20121;-77
2022/03/30 04:39:18;;;;;;;15.40;5.30;;;;;;;;;;7395281;19;20135;-77
2022/03/30 04:41:44;;;;;;;22.13;6.40;;;;;;;;;;7392267;19;20172;-77
2022/03/30 04:44:11;;;;;;;21.90;5.27;;;;;;;;;;7392496;19;20145;-78
2022/03/30 04:46:36;;;;;;;15.73;5.13;;;;;;;;;;7392782;19;20614;-77
2022/03/30 04:49:05;;;;;;;15.43;5.57;;;;;;;;;;7392613;19;20117;-78
2022/03/30 04:51:31;;;;;;;17.10;5.97;;;;;;;;;;7402477;19;20177;-77
2022/03/30 04:53:57;;;;;;;11.20;4.90;;;;;;;;;;7392688;19;20139;-78
2022/03/30 04:56:24;;;;;;;16.07;4.80;;;;;;;;;;7403269;19;20133;-78
2022/03/30 04:58:50;;;;;;;13.63;4.97;;;;;;;;;;7401239;19;20121;-77
2022/03/30 05:01:16;;;;;;;17.60;5.27;;;;;;;;;;7389271;19;20153;-77
2022/03/30 05:03:42;;;;;;;24.07;6.70;;;;;;;;;;7390975;19;20477;-77
2022/03/30 05:06:08;;;;;;;23.00;5.80;;;;;;;;;;7392633;19;20136;-77
2022/03/30 05:08:34;;;;;;;16.07;5.17;;;;;;;;;;7390742;19;20156;-77
2022/03/30 05:11:00;;;;;;;18.67;6.67;;;;;;;;;;7387040;19;20128;-77
2022/03/30 05:13:26;;;;;;;17.93;4.83;;;;;;;;;;7386223;19;20181;-77
2022/03/30 05:15:52;;;;;;;16.57;5.33;;;;;;;;;;7391239;19;20132;-77
2022/03/30 05:18:18;;;;;;;20.90;5.20;;;;;;;;;;7388409;19;20175;-77
2022/03/30 05:20:46;;;;;;;22.93;6.40;;;;;;;;;;7389975;19;20157;-77
2022/03/30 05:23:12;;;;;;;15.07;4.97;;;;;;;;;;7385137;19;20157;-76
2022/03/30 05:25:38;;;;;;;18.63;5.60;;;;;;;;;;7386945;19;20176;-76
2022/03/30 05:28:04;;;;;;;11.57;5.30;;;;;;;;;;7392998;19;20125;-75
2022/03/30 05:30:30;;;;;;;15.17;5.20;;;;;;;;;;7383608;19;20475;-76
2022/03/30 05:32:56;;;;;;;13.43;5.63;;;;;;;;;;7386980;19;20180;-76
2022/03/30 05:35:22;;;;;;;19.50;4.93;;;;;;;;;;7390880;19;20144;-76
2022/03/30 05:37:49;;;;;;;21.40;5.30;;;;;;;;;;7391372;19;20132;-76
2022/03/30 05:40:16;;;;;;;14.80;4.87;;;;;;;;;;7390318;19;20160;-76
2022/03/30 05:42:43;;;;;;;23.33;6.37;;;;;;;;;;7387030;19;20168;-76
2022/03/30 05:45:09;;;;;;;18.97;5.50;;;;;;;;;;7391563;19;20586;-76
2022/03/30 05:47:35;;;;;;;16.03;5.43;;;;;;;;;;7389497;19;20140;-75
2022/03/30 05:50:02;;;;;;;19.50;5.50;;;;;;;;;;7387092;19;20121;-76
2022/03/30 05:52:29;;;;;;;11.07;4.93;;;;;;;;;;7371254;19;20145;-76
2022/03/30 05:54:55;;;;;;;13.67;5.13;;;;;;;;;;7389861;19;20152;-77
2022/03/30 05:57:23;;;;;;;16.50;5.67;;;;;;;;;;7373428;19;20169;-76
2022/03/30 05:59:49;;;;;;;15.60;4.77;;;;;;;;;;7387801;19;20159;-76
2022/03/30 06:02:15;;;;;;;18.00;5.70;;;;;;;;;;7377260;19;20603;-77
2022/03/30 06:04:41;;;;;;;17.90;6.07;;;;;;;;;;7387802;19;20148;-76
2022/03/30 06:07:08;;;;;;;16.53;6.23;;;;;;;;;;7384394;19;20500;-76
2022/03/30 06:09:34;;;;;;;15.60;6.53;;;;;;;;;;7374493;19;20648;-76
2022/03/30 06:12:06;;;;;;;14.43;4.80;;;;;;;;;;7386864;19;20517;-76
2022/03/30 06:14:33;;;;;;;17.03;5.60;;;;;;;;;;7375016;19;20792;-76
2022/03/30 06:16:59;;;;;;;15.00;5.40;;;;;;;;;;7375536;19;20486;-76
2022/03/30 06:19:25;;;;;;;16.03;4.50;;;;;;;;;;7378035;19;20498;-75
2022/03/30 06:21:51;;;;;;;13.30;4.77;;;;;;;;;;7375929;19;20213;-76
2022/03/30 06:24:17;;;;;;;14.20;5.53;;;;;;;;;;7385877;19;20121;-76
2022/03/30 06:26:44;;;;;;;22.13;5.70;;;;;;;;;;7382240;19;20161;-76
2022/03/30 06:29:10;;;;;;;13.10;4.70;;;;;;;;;;7389759;19;20481;-77
2022/03/30 06:31:36;;;;;;;18.97;5.60;;;;;;;;;;7374005;19;20609;-75
2022/03/30 06:34:02;;;;;;;19.33;6.17;;;;;;;;;;7376361;19;20140;-76
2022/03/30 06:36:29;;;;;;;18.70;5.63;;;;;;;;;;7383042;19;20665;-77
2022/03/30 06:38:56;;;;;;;25.00;5.63;;;;;;;;;;7371805;19;20137;-76
2022/03/30 06:41:24;;;;;;;14.20;5.30;;;;;;;;;;7382676;19;20145;-77
2022/03/30 06:43:50;;;;;;;19.73;5.73;;;;;;;;;;7383788;19;20156;-76
2022/03/30 06:46:17;;;;;;;17.60;5.47;;;;;;;;;;7385746;19;20761;-76
2022/03/30 06:48:45;;;;;;;16.93;6.77;;;;;;;;;;7363845;19;20264;-76
2022/03/30 06:51:11;;;;;;;21.47;5.87;;;;;;;;;;7379472;19;20484;-77
2022/03/30 06:53:37;;;;;;;14.23;5.83;;;;;;;;;;7383299;19;20129;-77
2022/03/30 06:56:03;;;;;;;14.50;5.23;;;;;;;;;;7378684;19;20141;-75
2022/03/30 06:58:29;;;;;;;16.40;4.87;;;;;;;;;;7380095;19;20124;-76
2022/03/30 07:00:56;;;;;;;20.73;5.87;;;;;;;;;;7388131;19;20129;-76
2022/03/30 07:03:26;;;;;;;19.43;5.40;;;;;;;;;;7383707;19;20180;-76
2022/03/30 07:05:52;;;;;;;17.83;6.40;;;;;;;;;;7399409;19;20132;-77
2022/03/30 07:11:02;;;;;;;23.83;5.80;;;;;;;;;;7398259;19;20132;-76
2022/03/30 07:13:28;;;;;;;21.07;6.37;;;;;;;;;;7384540;19;20156;-76
2022/03/30 07:15:54;;;;;;;20.23;5.20;;;;;;;;;;7380080;19;20442;-76
2022/03/30 07:18:20;;;;;;;13.90;5.03;;;;;;;;;;7382970;19;20125;-76
2022/03/30 07:20:46;;;;;;;25.63;6.43;;;;;;;;;;7383038;19;20152;-76
2022/03/30 07:23:14;;;;;;;25.70;5.80;;;;;;;;;;7377464;19;20530;-76
2022/03/30 07:25:40;;;;;;;24.40;6.23;;;;;;;;;;7386877;19;20133;-76
2022/03/30 07:28:07;;;;;;;16.70;5.27;;;;;;;;;;7384307;19;20120;-77
2022/03/30 07:30:33;;;;;;;17.27;6.40;;;;;;;;;;7386075;19;20152;-76
2022/03/30 07:32:59;;;;;;;13.17;5.20;;;;;;;;;;7378273;19;20523;-76
2022/03/30 07:35:32;;;;;;;13.23;5.83;;;;;;;;;;7381779;19;20145;-76
2022/03/30 07:37:59;;;;;;;19.87;6.50;;;;;;;;;;7382229;19;20132;-76
2022/03/30 07:40:26;;;;;;;17.63;6.03;;;;;;;;;;7384908;19;22765;-76
2022/03/30 07:42:54;;;;;;;18.30;6.53;;;;;;;;;;7379320;19;20539;-75
2022/03/30 07:45:20;;;;;;;22.70;5.40;;;;;;;;;;7387623;19;20610;-76
2022/03/30 07:47:46;;;;;;;17.80;5.23;;;;;;;;;;7399548;19;20125;-76
2022/03/30 07:50:12;;;;;;;17.70;6.27;;;;;;;;;;7407353;19;20117;-76
2022/03/30 07:52:38;;;;;;;22.87;5.90;;;;;;;;;;7403505;19;20153;-76
2022/03/30 07:55:05;;;;;;;15.40;5.73;;;;;;;;;;7396335;19;20117;-76
2022/03/30 07:57:31;;;;;;;20.73;6.00;;;;;;;;;;7387976;19;20152;-76
2022/03/30 07:59:58;;;;;;;13.87;4.97;;;;;;;;;;7399433;19;20132;-77
2022/03/30 08:02:25;;;;;;;17.27;6.10;;;;;;;;;;7391902;19;20172;-76
2022/03/30 08:04:51;;;;;;;20.40;6.47;;;;;;;;;;7409508;19;20141;-76
2022/03/30 08:07:18;;;;;;;16.33;5.70;;;;;;;;;;7399241;19;20157;-77
2022/03/30 08:09:45;;;;;;;16.73;5.70;;;;;;;;;;7407738;19;20487;-77
2022/03/30 08:12:14;;;;;;;17.37;5.80;;;;;;;;;;7398633;19;20193;-76
2022/03/30 08:14:41;;;;;;;16.67;6.10;;;;;;;;;;7407823;19;20157;-76
2022/03/30 08:17:07;;;;;;;16.60;5.47;;;;;;;;;;7409986;19;20173;-76
2022/03/30 08:19:33;;;;;;;15.23;5.80;;;;;;;;;;7411182;19;20529;-76
2022/03/30 08:24:46;;;;;;;17.33;6.60;;;;;;;;;;7389234;19;20135;-76
2022/03/30 08:27:14;;;;;;;17.93;6.23;;;;;;;;;;7400938;19;20208;-76
2022/03/30 08:29:40;;;;;;;18.37;6.50;;;;;;;;;;7407086;19;20142;-76
2022/03/30 08:32:06;;;;;;;17.97;6.00;;;;;;;;;;7407368;19;20141;-76
2022/03/30 08:34:32;;;;;;;20.00;7.50;;;;;;;;;;7400919;19;20152;-76
2022/03/30 08:36:58;;;;;;;18.60;5.87;;;;;;;;;;7400472;19;20172;-76
2022/03/30 08:39:25;;;;;;;16.57;6.20;;;;;;;;;;7399638;19;20197;-76
2022/03/30 08:41:51;;;;;;;16.37;6.00;;;;;;;;;;7400640;19;20137;-76
2022/03/30 08:44:17;;;;;;;22.43;6.90;;;;;;;;;;7392509;19;20180;-76
2022/03/30 08:46:47;;;;;;;16.57;6.37;;;;;;;;;;7389715;19;20160;-76
2022/03/30 08:49:14;;;;;;;21.20;6.50;;;;;;;;;;7393263;19;20153;-77
2022/03/30 08:51:41;;;;;;;20.67;6.70;;;;;;;;;;7391757;19;20197;-77
2022/03/30 08:54:10;;;;;;;21.97;8.10;;;;;;;;;;7388096;19;20618;-76
2022/03/30 08:56:37;;;;;;;19.03;7.30;;;;;;;;;;7389211;19;20136;-77
2022/03/30 08:59:15;;;;;;;17.10;6.40;;;;;;;;;;7387121;19;20594;-77
2022/03/30 09:01:43;;;;;;;21.33;7.17;;;;;;;;;;7384720;19;20168;-77
2022/03/30 09:04:11;;;;;;;22.77;7.30;;;;;;;;;;7389655;19;20144;-77
2022/03/30 09:06:46;;;;;;;20.67;7.70;;;;;;;;;;7393047;19;20149;-76
2022/03/30 09:09:14;;;;;;;19.40;7.00;;;;;;;;;;7390064;19;20109;-77
2022/03/30 09:11:44;;;;;;;20.13;7.87;;;;;;;;;;7391342;19;20153;-77
2022/03/30 09:14:10;;;;;;;14.53;7.67;;;;;;;;;;7389691;19;20173;-76
2022/03/30 09:16:47;;;;;;;22.43;7.27;;;;;;;;;;7405757;19;20455;-76
2022/03/30 09:19:14;;;;;;;21.57;7.73;;;;;;;;;;7405600;19;20144;-76
2022/03/30 09:21:41;;;;;;;15.23;6.67;;;;;;;;;;7411177;19;20141;-76
2022/03/30 09:24:08;;;;;;;17.37;7.10;;;;;;;;;;7420049;19;20125;-77
2022/03/30 09:26:34;;;;;;;18.07;7.17;;;;;;;;;;7414225;19;20168;-76
2022/03/30 09:29:00;;;;;;;13.27;6.87;;;;;;;;;;7413670;19;20125;-77
2022/03/30 09:31:27;;;;;;;22.13;6.73;;;;;;;;;;7388763;19;20129;-77
2022/03/30 09:33:53;;;;;;;15.97;6.57;;;;;;;;;;7387364;19;20654;-77
2022/03/30 09:36:36;;;;;;;14.53;7.20;;;;;;;;;;7389292;19;20147;-77
2022/03/30 09:39:04;;;;;;;18.33;7.87;;;;;;;;;;7387803;19;20156;-76
2022/03/30 09:41:46;;;;;;;14.70;7.43;;;;;;;;;;7385586;19;20189;-76
2022/03/30 09:44:12;;;;;;;15.47;6.50;;;;;;;;;;7388292;19;20140;-77
2022/03/30 09:47:10;;;;;;;13.47;6.13;;;;;;;;;;7379289;19;20152;-77
2022/03/30 09:49:41;;;;;;;13.27;6.50;;;;;;;;;;7386545;19;20149;-77
2022/03/30 09:52:18;;;;;;;18.73;6.10;;;;;;;;;;7389387;19;21108;-77
2022/03/30 09:54:53;;;;;;;14.07;5.50;;;;;;;;;;7387568;19;20168;-78
2022/03/30 09:57:26;;;;;;;13.53;6.23;;;;;;;;;;7388108;19;20160;-77
2022/03/30 09:59:55;;;;;;;15.47;6.17;;;;;;;;;;7389397;19;20152;-77
2022/03/30 10:02:21;;;;;;;15.50;6.80;;;;;;;;;;7389474;19;20172;-77
2022/03/30 10:04:48;;;;;;;13.30;5.97;;;;;;;;;;7382645;19;20117;-77
2022/03/30 10:07:14;;;;;;;13.50;6.70;;;;;;;;;;7385643;19;20151;-77
2022/03/30 10:09:42;;;;;;;12.30;6.17;;;;;;;;;;7386839;19;20117;-77
2022/03/30 10:12:08;;;;;;;13.27;6.20;;;;;;;;;;7384693;19;20244;-77
2022/03/30 10:14:36;;;;;;;11.83;6.40;;;;;;;;;;7387217;19;20149;-78
2022/03/30 10:17:02;;;;;;;14.00;6.50;;;;;;;;;;7388335;19;20161;-77
2022/03/30 10:19:28;;;;;;;14.50;6.57;;;;;;;;;;7383688;19;20138;-77
2022/03/30 10:22:04;;;;;;;17.13;7.03;;;;;;;;;;7383655;19;20173;-77
2022/03/30 10:24:33;;;;;;;15.37;5.97;;;;;;;;;;7383909;19;20144;-77
2022/03/30 10:27:05;;;;;;;12.53;5.33;;;;;;;;;;7386312;19;20173;-77
2022/03/30 10:29:31;;;;;;;10.87;6.10;;;;;;;;;;7390420;19;20144;-76
2022/03/30 10:32:10;;;;;;;12.97;6.03;;;;;;;;;;7385888;19;20145;-77
2022/03/30 10:34:40;;;;;;;12.53;5.37;;;;;;;;;;7389602;19;20133;-76
2022/03/30 10:37:09;;;;;;;13.73;5.83;;;;;;;;;;7383613;19;20197;-76
2022/03/30 10:39:35;;;;;;;10.33;5.53;;;;;;;;;;7423566;19;20394;-77
2022/03/30 10:42:08;;;;;;;14.30;6.23;;;;;;;;;;7419566;19;20227;-77
2022/03/30 10:44:49;;;;;;;14.37;6.13;;;;;;;;;;7417901;19;20149;-76
2022/03/30 10:47:16;;;;;;;13.67;6.07;;;;;;;;;;7421232;19;20137;-77
2022/03/30 10:49:54;;;;;;;13.33;5.43;;;;;;;;;;7388943;19;20600;-77
2022/03/30 10:52:32;;;;;;;11.60;5.40;;;;;;;;;;7383759;19;20180;-76
2022/03/30 10:55:13;;;;;;;12.00;5.47;;;;;;;;;;7383540;19;20657;-76
2022/03/30 10:57:53;;;;;;;14.37;5.57;;;;;;;;;;7382831;19;20153;-77
2022/03/30 11:00:19;;;;;;;9.77;5.30;;;;;;;;;;7387535;19;20137;-78
2022/03/30 11:02:45;;;;;;;23.40;12.23;;;;;;;;;;7380545;19;20184;-77
2022/03/30 11:05:12;;;;;;;10.53;5.57;;;;;;;;;;7382803;19;20498;-78
2022/03/30 11:07:38;;;;;;;6.63;4.40;;;;;;;;;;7376521;19;20511;-77
2022/03/30 11:10:17;;;;;;;13.70;5.50;;;;;;;;;;7379236;19;20129;-78
2022/03/30 11:13:15;;;;;;;12.23;4.83;;;;;;;;;;7381999;19;20150;-77
2022/03/30 11:15:59;;;;;;;8.13;5.00;;;;;;;;;;7384762;19;20165;-77
2022/03/30 11:18:29;;;;;;;10.87;4.87;;;;;;;;;;7389807;19;20131;-77
2022/03/30 11:21:14;;;;;;;8.33;5.23;;;;;;;;;;7387601;19;20623;-78
2022/03/30 11:23:53;;;;;;;14.07;4.87;;;;;;;;;;7384503;19;20169;-76
2022/03/30 11:26:19;;;;;;;12.20;5.00;;;;;;;;;;7390059;19;20481;-77
2022/03/30 11:28:45;;;;;;;9.63;5.10;;;;;;;;;;7383894;19;20545;-77
2022/03/30 11:31:23;;;;;;;8.77;4.70;;;;;;;;;;7389895;19;20133;-77
2022/03/30 11:34:08;;;;;;;6.93;4.40;;;;;;;;;;7378499;19;20133;-77
2022/03/30 11:36:36;;;;;;;8.07;4.77;;;;;;;;;;7380763;19;20132;-77
2022/03/30 11:39:02;;;;;;;10.93;4.80;;;;;;;;;;7381307;19;20117;-77
2022/03/30 11:41:29;;;;;;;10.30;4.60;;;;;;;;;;7382206;19;20622;-78
2022/03/30 11:46:41;;;;;;;8.63;4.03;;;;;;;;;;7389722;19;20477;-76
2022/03/30 11:49:08;;;;;;;8.73;3.87;;;;;;;;;;7377967;19;20150;-77
2022/03/30 11:51:36;;;;;;;8.13;4.40;;;;;;;;;;7384201;19;20187;-77
2022/03/30 11:54:11;;;;;;;8.63;4.03;;;;;;;;;;7374966;19;20144;-80
2022/03/30 11:56:37;;;;;;;7.27;3.80;;;;;;;;;;7370970;19;20151;-76
2022/03/30 11:59:03;;;;;;;6.87;3.87;;;;;;;;;;7368472;19;20129;-76
2022/03/30 12:01:29;;;;;;;11.60;4.37;;;;;;;;;;7380338;19;20133;-76
2022/03/30 12:03:55;;;;;;;7.07;4.17;;;;;;;;;;7377949;19;20221;-76
2022/03/30 12:06:21;;;;;;;10.63;4.80;;;;;;;;;;7372899;19;20153;-77
2022/03/30 12:08:48;;;;;;;7.70;4.20;;;;;;;;;;7374269;19;20219;-76
2022/03/30 12:11:15;;;;;;;9.97;4.63;;;;;;;;;;7370304;19;20669;-76
2022/03/30 12:13:41;;;;;;;9.37;4.13;;;;;;;;;;7368239;19;20196;-76
2022/03/30 12:16:09;;;;;;;8.77;4.27;;;;;;;;;;7381830;19;20145;-77
2022/03/30 12:18:47;;;;;;;9.97;4.37;;;;;;;;;;7373547;19;20153;-76
2022/03/30 12:21:14;;;;;;;10.10;4.77;;;;;;;;;;7378630;19;20484;-78
2022/03/30 12:23:54;;;;;;;10.07;5.07;;;;;;;;;;7381506;19;20625;-76
2022/03/30 12:26:20;;;;;;;7.00;3.90;;;;;;;;;;7375026;19;20144;-76
2022/03/30 12:28:46;;;;;;;9.37;4.57;;;;;;;;;;7385383;19;20113;-77
2022/03/30 12:31:14;;;;;;;8.53;4.10;;;;;;;;;;7382034;19;20630;-76
2022/03/30 12:33:52;;;;;;;11.13;4.77;;;;;;;;;;7384422;19;20129;-75
2022/03/30 12:36:19;;;;;;;10.20;4.43;;;;;;;;;;7391534;19;20185;-76
2022/03/30 12:38:46;;;;;;;11.83;4.13;;;;;;;;;;7389744;19;20155;-77
2022/03/30 12:41:22;;;;;;;8.37;4.20;;;;;;;;;;7383417;19;20590;-77
2022/03/30 12:43:57;;;;;;;8.57;5.23;;;;;;;;;;7390872;19;20137;-77
2022/03/30 12:46:23;;;;;;;9.27;4.27;;;;;;;;;;7390383;19;20117;-77
2022/03/30 12:48:49;;;;;;;9.37;4.23;;;;;;;;;;7364380;19;20642;-77
2022/03/30 12:51:19;;;;;;;8.80;4.40;;;;;;;;;;7387699;19;20149;-77
2022/03/30 12:53:47;;;;;;;10.37;4.30;;;;;;;;;;7391198;19;20133;-76
2022/03/30 12:56:14;;;;;;;15.10;5.10;;;;;;;;;;7384181;19;20644;-77
2022/03/30 12:59:01;;;;;;;9.60;5.00;;;;;;;;;;7390391;19;20153;-78
2022/03/30 13:01:30;;;;;;;8.47;4.53;;;;;;;;;;7385718;19;20140;-76
2022/03/30 13:03:56;;;;;;;8.23;4.23;;;;;;;;;;7383225;19;20141;-78
2022/03/30 13:06:23;;;;;;;10.00;5.10;;;;;;;;;;7382666;19;20163;-77
2022/03/30 13:09:08;;;;;;;10.20;4.13;;;;;;;;;;7376679;19;20208;-76
2022/03/30 13:11:41;;;;;;;14.30;4.77;;;;;;;;;;7388180;19;20160;-76
2022/03/30 13:14:14;;;;;;;8.37;4.40;;;;;;;;;;7384698;19;20200;-77
2022/03/30 13:16:40;;;;;;;9.67;4.57;;;;;;;;;;7377356;19;20124;-77
2022/03/30 13:19:07;;;;;;;8.17;4.53;;;;;;;;;;7384953;19;20498;-76
2022/03/30 13:21:37;;;;;;;8.50;4.57;;;;;;;;;;7389917;19;20279;-76
2022/03/30 13:24:20;;;;;;;9.10;4.57;;;;;;;;;;7385578;19;20144;-78
2022/03/30 13:26:47;;;;;;;9.40;4.33;;;;;;;;;;7378980;19;20136;-78
2022/03/30 13:29:14;;;;;;;11.00;4.53;;;;;;;;;;7388662;19;20196;-78
2022/03/30 13:31:46;;;;;;;15.17;5.17;;;;;;;;;;7383923;19;20172;-77
2022/03/30 13:34:12;;;;;;;11.47;4.47;;;;;;;;;;7375168;19;20204;-76
2022/03/30 13:36:38;;;;;;;8.30;4.87;;;;;;;;;;7386266;19;20141;-77
2022/03/30 13:39:05;;;;;;;11.23;4.53;;;;;;;;;;7382320;19;20137;-76
2022/03/30 13:41:31;;;;;;;9.77;4.43;;;;;;;;;;7389305;19;20156;-77
2022/03/30 13:43:58;;;;;;;11.00;4.57;;;;;;;;;;7381075;19;20576;-77
2022/03/30 13:46:24;;;;;;;10.43;4.50;;;;;;;;;;7386384;19;20149;-77
2022/03/30 13:48:50;;;;;;;12.53;5.00;;;;;;;;;;7376646;19;20152;-76
2022/03/30 13:51:16;;;;;;;10.30;4.33;;;;;;;;;;7386119;19;20121;-76
2022/03/30 13:53:43;;;;;;;17.80;4.90;;;;;;;;;;7376587;19;20145;-76
2022/03/30 13:56:10;;;;;;;7.57;4.47;;;;;;;;;;7384668;19;20140;-76
2022/03/30 13:58:36;;;;;;;7.93;4.00;;;;;;;;;;7383677;19;20564;-76
2022/03/30 14:01:03;;;;;;;7.10;4.27;;;;;;;;;;7386929;19;20120;-77
2022/03/30 14:03:32;;;;;;;6.93;4.10;;;;;;;;;;7386386;19;20167;-76
2022/03/30 14:05:59;;;;;;;9.97;4.20;;;;;;;;;;7389420;19;20128;-77
2022/03/30 14:08:25;;;;;;;11.43;4.73;;;;;;;;;;7386715;19;20167;-77
2022/03/30 14:10:55;;;;;;;11.23;4.40;;;;;;;;;;7376546;19;20453;-77
2022/03/30 14:13:21;;;;;;;11.63;4.20;;;;;;;;;;7380914;19;20674;-76
2022/03/30 14:15:47;;;;;;;11.77;4.73;;;;;;;;;;7386733;19;20159;-76
2022/03/30 14:18:13;;;;;;;11.90;4.87;;;;;;;;;;7384329;19;20129;-76
2022/03/30 14:20:41;;;;;;;8.93;4.07;;;;;;;;;;7390718;19;20125;-76
2022/03/30 14:23:07;;;;;;;8.52;4.40;;;;;;;;;;7381018;19;20181;-78
